sensor_id;sensor_type;location;lat;lon;timestamp;P1;durP1;ratioP1;P2;durP2;ratioP2
1779;SDS011;10019;46.670;14.260;2022-10-03T00:01:36;8.00;;;3.20;;
1779;SDS011;10019;46.670;14.260;2022-10-03T00:04:31;3.20;;;2.73;;
1779;SDS011;10019;46.670;14.260;2022-10-03T00:07:13;4.43;;;3.03;;
1779;SDS011;10019;46.670;14.260;2022-10-03T00:09:56;3.30;;;3.00;;
1779;SDS011;10019;46.670;14.260;2022-10-03T00:12:37;3.13;;;2.60;;
1779;SDS011;10019;46.670;14.260;2022-10-03T00:15:17;3.03;;;2.73;;
1779;SDS011;10019;46.670;14.260;2022-10-03T00:17:58;3.27;;;2.73;;
1779;SDS011;10019;46.670;14.260;2022-10-03T00:20:42;5.40;;;2.67;;
1779;SDS011;10019;46.670;14.260;2022-10-03T00:23:23;4.33;;;2.93;;
1779;SDS011;10019;46.670;14.260;2022-10-03T00:26:01;3.20;;;2.83;;
1779;SDS011;10019;46.670;14.260;2022-10-03T00:32:02;3.70;;;3.00;;
1779;SDS011;10019;46.670;14.260;2022-10-03T00:34:51;5.13;;;3.00;;
1779;SDS011;10019;46.670;14.260;2022-10-03T00:37:31;3.63;;;3.00;;
1779;SDS011;10019;46.670;14.260;2022-10-03T00:43:16;11.47;;;3.67;;
1779;SDS011;10019;46.670;14.260;2022-10-03T00:51:56;6.53;;;3.30;;
1779;SDS011;10019;46.670;14.260;2022-10-03T00:54:40;3.37;;;2.50;;
1779;SDS011;10019;46.670;14.260;2022-10-03T00:57:26;3.30;;;2.87;;
1779;SDS011;10019;46.670;14.260;2022-10-03T01:00:14;4.10;;;3.20;;
1779;SDS011;10019;46.670;14.260;2022-10-03T01:02:53;3.70;;;3.10;;
1779;SDS011;10019;46.670;14.260;2022-10-03T01:05:48;8.00;;;2.53;;
1779;SDS011;10019;46.670;14.260;2022-10-03T01:08:36;3.83;;;3.00;;
1779;SDS011;10019;46.670;14.260;2022-10-03T01:11:22;4.47;;;3.20;;
1779;SDS011;10019;46.670;14.260;2022-10-03T01:14:02;6.47;;;2.77;;
1779;SDS011;10019;46.670;14.260;2022-10-03T01:16:43;6.43;;;4.40;;
1779;SDS011;10019;46.670;14.260;2022-10-03T01:22:32;3.00;;;2.70;;
1779;SDS011;10019;46.670;14.260;2022-10-03T01:25:15;3.30;;;3.00;;
1779;SDS011;10019;46.670;14.260;2022-10-03T01:27:53;3.90;;;2.70;;
1779;SDS011;10019;46.670;14.260;2022-10-03T01:30:50;3.37;;;3.00;;
1779;SDS011;10019;46.670;14.260;2022-10-03T01:33:26;3.57;;;3.03;;
1779;SDS011;10019;46.670;14.260;2022-10-03T01:36:02;3.60;;;2.63;;
1779;SDS011;10019;46.670;14.260;2022-10-03T01:38:40;4.60;;;3.00;;
1779;SDS011;10019;46.670;14.260;2022-10-03T01:41:21;3.43;;;3.13;;
1779;SDS011;10019;46.670;14.260;2022-10-03T01:43:56;3.10;;;2.80;;
1779;SDS011;10019;46.670;14.260;2022-10-03T01:46:36;5.13;;;3.00;;
1779;SDS011;10019;46.670;14.260;2022-10-03T01:49:09;2.73;;;2.53;;
1779;SDS011;10019;46.670;14.260;2022-10-03T01:51:48;3.20;;;2.70;;
1779;SDS011;10019;46.670;14.260;2022-10-03T01:54:26;5.47;;;2.93;;
1779;SDS011;10019;46.670;14.260;2022-10-03T01:57:01;3.10;;;2.67;;
1779;SDS011;10019;46.670;14.260;2022-10-03T01:59:41;3.17;;;2.50;;
1779;SDS011;10019;46.670;14.260;2022-10-03T02:02:21;7.40;;;2.93;;
1779;SDS011;10019;46.670;14.260;2022-10-03T02:05:01;4.20;;;2.87;;
1779;SDS011;10019;46.670;14.260;2022-10-03T02:07:38;4.50;;;3.00;;
1779;SDS011;10019;46.670;14.260;2022-10-03T02:10:17;22.37;;;4.47;;
1779;SDS011;10019;46.670;14.260;2022-10-03T02:12:56;19.63;;;4.23;;
1779;SDS011;10019;46.670;14.260;2022-10-03T02:15:33;28.70;;;4.57;;
1779;SDS011;10019;46.670;14.260;2022-10-03T02:18:13;22.73;;;4.43;;
1779;SDS011;10019;46.670;14.260;2022-10-03T02:20:49;5.63;;;3.00;;
1779;SDS011;10019;46.670;14.260;2022-10-03T02:23:26;5.07;;;3.20;;
1779;SDS011;10019;46.670;14.260;2022-10-03T02:26:19;4.37;;;3.10;;
1779;SDS011;10019;46.670;14.260;2022-10-03T02:29:16;4.43;;;2.97;;
1779;SDS011;10019;46.670;14.260;2022-10-03T02:38:38;7.77;;;2.73;;
1779;SDS011;10019;46.670;14.260;2022-10-03T02:41:27;3.27;;;2.67;;
1779;SDS011;10019;46.670;14.260;2022-10-03T02:50:30;4.07;;;3.20;;
1779;SDS011;10019;46.670;14.260;2022-10-03T02:56:54;4.60;;;3.13;;
1779;SDS011;10019;46.670;14.260;2022-10-03T02:59:59;3.40;;;2.90;;
1779;SDS011;10019;46.670;14.260;2022-10-03T03:06:12;3.20;;;2.77;;
1779;SDS011;10019;46.670;14.260;2022-10-03T03:08:54;3.07;;;2.87;;
1779;SDS011;10019;46.670;14.260;2022-10-03T03:14:37;3.30;;;2.80;;
1779;SDS011;10019;46.670;14.260;2022-10-03T03:17:29;6.47;;;3.40;;
1779;SDS011;10019;46.670;14.260;2022-10-03T03:23:16;5.90;;;3.70;;
1779;SDS011;10019;46.670;14.260;2022-10-03T03:26:05;4.60;;;3.40;;
1779;SDS011;10019;46.670;14.260;2022-10-03T03:28:48;3.10;;;2.80;;
1779;SDS011;10019;46.670;14.260;2022-10-03T03:31:27;6.70;;;3.83;;
1779;SDS011;10019;46.670;14.260;2022-10-03T03:34:02;4.83;;;3.77;;
1779;SDS011;10019;46.670;14.260;2022-10-03T03:36:39;3.60;;;3.30;;
1779;SDS011;10019;46.670;14.260;2022-10-03T03:39:18;3.27;;;2.97;;
1779;SDS011;10019;46.670;14.260;2022-10-03T03:42:08;3.30;;;3.00;;
1779;SDS011;10019;46.670;14.260;2022-10-03T03:45:02;2.90;;;2.50;;
1779;SDS011;10019;46.670;14.260;2022-10-03T03:47:56;7.70;;;2.97;;
1779;SDS011;10019;46.670;14.260;2022-10-03T03:50:38;5.50;;;3.13;;
1779;SDS011;10019;46.670;14.260;2022-10-03T03:53:25;4.97;;;3.00;;
1779;SDS011;10019;46.670;14.260;2022-10-03T03:56:34;4.03;;;2.90;;
1779;SDS011;10019;46.670;14.260;2022-10-03T03:59:22;3.60;;;2.73;;
1779;SDS011;10019;46.670;14.260;2022-10-03T04:02:04;4.87;;;3.23;;
1779;SDS011;10019;46.670;14.260;2022-10-03T04:04:53;5.13;;;3.13;;
1779;SDS011;10019;46.670;14.260;2022-10-03T04:07:33;3.70;;;3.03;;
1779;SDS011;10019;46.670;14.260;2022-10-03T04:10:30;4.37;;;3.43;;
1779;SDS011;10019;46.670;14.260;2022-10-03T04:13:12;5.43;;;3.10;;
1779;SDS011;10019;46.670;14.260;2022-10-03T04:16:07;3.70;;;3.30;;
1779;SDS011;10019;46.670;14.260;2022-10-03T04:18:50;10.60;;;3.27;;
1779;SDS011;10019;46.670;14.260;2022-10-03T04:21:32;6.33;;;2.90;;
1779;SDS011;10019;46.670;14.260;2022-10-03T04:24:16;5.10;;;3.13;;
1779;SDS011;10019;46.670;14.260;2022-10-03T04:30:18;4.47;;;2.90;;
1779;SDS011;10019;46.670;14.260;2022-10-03T04:32:56;2.63;;;2.43;;
1779;SDS011;10019;46.670;14.260;2022-10-03T04:35:45;4.13;;;2.73;;
1779;SDS011;10019;46.670;14.260;2022-10-03T04:38:53;4.97;;;3.10;;
1779;SDS011;10019;46.670;14.260;2022-10-03T04:41:34;4.47;;;3.23;;
1779;SDS011;10019;46.670;14.260;2022-10-03T04:44:16;3.50;;;2.70;;
1779;SDS011;10019;46.670;14.260;2022-10-03T04:46:56;3.00;;;2.73;;
1779;SDS011;10019;46.670;14.260;2022-10-03T04:49:33;3.27;;;2.93;;
1779;SDS011;10019;46.670;14.260;2022-10-03T04:52:14;4.93;;;2.80;;
1779;SDS011;10019;46.670;14.260;2022-10-03T04:54:53;3.37;;;3.07;;
1779;SDS011;10019;46.670;14.260;2022-10-03T04:57:30;4.60;;;3.20;;
1779;SDS011;10019;46.670;14.260;2022-10-03T05:00:13;4.30;;;3.83;;
1779;SDS011;10019;46.670;14.260;2022-10-03T05:02:53;4.63;;;3.90;;
1779;SDS011;10019;46.670;14.260;2022-10-03T05:05:39;4.57;;;4.10;;
1779;SDS011;10019;46.670;14.260;2022-10-03T05:08:26;5.50;;;4.00;;
1779;SDS011;10019;46.670;14.260;2022-10-03T05:11:06;5.70;;;3.70;;
1779;SDS011;10019;46.670;14.260;2022-10-03T05:13:43;4.80;;;4.00;;
1779;SDS011;10019;46.670;14.260;2022-10-03T05:16:24;4.93;;;3.60;;
1779;SDS011;10019;46.670;14.260;2022-10-03T05:19:07;4.20;;;3.80;;
1779;SDS011;10019;46.670;14.260;2022-10-03T05:21:48;6.83;;;3.53;;
1779;SDS011;10019;46.670;14.260;2022-10-03T05:24:27;3.53;;;3.23;;
1779;SDS011;10019;46.670;14.260;2022-10-03T05:27:07;6.03;;;4.07;;
1779;SDS011;10019;46.670;14.260;2022-10-03T05:29:46;7.00;;;5.00;;
1779;SDS011;10019;46.670;14.260;2022-10-03T05:32:24;6.53;;;4.70;;
1779;SDS011;10019;46.670;14.260;2022-10-03T05:37:57;4.47;;;4.07;;
1779;SDS011;10019;46.670;14.260;2022-10-03T05:40:40;7.40;;;4.10;;
1779;SDS011;10019;46.670;14.260;2022-10-03T05:43:20;4.47;;;4.07;;
1779;SDS011;10019;46.670;14.260;2022-10-03T05:46:00;5.63;;;4.53;;
1779;SDS011;10019;46.670;14.260;2022-10-03T05:48:39;5.23;;;4.10;;
1779;SDS011;10019;46.670;14.260;2022-10-03T05:54:24;4.93;;;4.43;;
1779;SDS011;10019;46.670;14.260;2022-10-03T05:57:18;5.03;;;4.53;;
1779;SDS011;10019;46.670;14.260;2022-10-03T06:00:10;5.73;;;5.13;;
1779;SDS011;10019;46.670;14.260;2022-10-03T06:06:01;5.80;;;5.20;;
1779;SDS011;10019;46.670;14.260;2022-10-03T06:08:48;5.67;;;4.60;;
1779;SDS011;10019;46.670;14.260;2022-10-03T06:11:40;7.77;;;4.50;;
1779;SDS011;10019;46.670;14.260;2022-10-03T06:14:28;4.60;;;4.20;;
1779;SDS011;10019;46.670;14.260;2022-10-03T06:17:12;4.10;;;3.70;;
1779;SDS011;10019;46.670;14.260;2022-10-03T06:19:53;6.80;;;4.40;;
1779;SDS011;10019;46.670;14.260;2022-10-03T06:28:50;4.73;;;4.23;;
1779;SDS011;10019;46.670;14.260;2022-10-03T06:32:03;4.20;;;3.80;;
1779;SDS011;10019;46.670;14.260;2022-10-03T06:41:25;4.50;;;3.30;;
1779;SDS011;10019;46.670;14.260;2022-10-03T06:44:15;4.37;;;3.97;;
1779;SDS011;10019;46.670;14.260;2022-10-03T06:46:59;8.20;;;4.90;;
1779;SDS011;10019;46.670;14.260;2022-10-03T06:52:57;5.77;;;5.27;;
1779;SDS011;10019;46.670;14.260;2022-10-03T06:55:50;5.77;;;5.17;;
1779;SDS011;10019;46.670;14.260;2022-10-03T07:04:58;6.80;;;5.83;;
1779;SDS011;10019;46.670;14.260;2022-10-03T07:07:46;6.40;;;4.80;;
1779;SDS011;10019;46.670;14.260;2022-10-03T07:10:43;6.47;;;5.20;;
1779;SDS011;10019;46.670;14.260;2022-10-03T07:13:34;7.83;;;5.53;;
1779;SDS011;10019;46.670;14.260;2022-10-03T07:23:06;6.27;;;5.70;;
1779;SDS011;10019;46.670;14.260;2022-10-03T07:29:11;5.27;;;4.70;;
1779;SDS011;10019;46.670;14.260;2022-10-03T07:31:58;4.77;;;4.37;;
1779;SDS011;10019;46.670;14.260;2022-10-03T07:37:50;4.43;;;4.03;;
1779;SDS011;10019;46.670;14.260;2022-10-03T07:44:02;7.17;;;5.03;;
1779;SDS011;10019;46.670;14.260;2022-10-03T07:53:19;5.30;;;4.80;;
1779;SDS011;10019;46.670;14.260;2022-10-03T07:56:05;5.43;;;4.93;;
1779;SDS011;10019;46.670;14.260;2022-10-03T07:58:50;5.40;;;4.37;;
1779;SDS011;10019;46.670;14.260;2022-10-03T08:04:28;4.30;;;3.97;;
1779;SDS011;10019;46.670;14.260;2022-10-03T08:07:24;4.47;;;4.07;;
1779;SDS011;10019;46.670;14.260;2022-10-03T08:10:10;4.17;;;3.77;;
1779;SDS011;10019;46.670;14.260;2022-10-03T08:13:10;4.40;;;4.00;;
1779;SDS011;10019;46.670;14.260;2022-10-03T08:16:01;4.07;;;3.77;;
1779;SDS011;10019;46.670;14.260;2022-10-03T08:18:51;6.10;;;3.80;;
1779;SDS011;10019;46.670;14.260;2022-10-03T08:21:34;4.80;;;4.30;;
1779;SDS011;10019;46.670;14.260;2022-10-03T08:24:17;4.77;;;3.93;;
1779;SDS011;10019;46.670;14.260;2022-10-03T08:27:06;6.37;;;4.30;;
1779;SDS011;10019;46.670;14.260;2022-10-03T08:29:52;4.97;;;3.57;;
1779;SDS011;10019;46.670;14.260;2022-10-03T08:35:31;3.60;;;3.30;;
1779;SDS011;10019;46.670;14.260;2022-10-03T08:47:24;3.33;;;3.03;;
1779;SDS011;10019;46.670;14.260;2022-10-03T08:50:31;3.13;;;2.90;;
1779;SDS011;10019;46.670;14.260;2022-10-03T08:56:23;3.10;;;2.80;;
1779;SDS011;10019;46.670;14.260;2022-10-03T09:08:18;3.90;;;3.40;;
1779;SDS011;10019;46.670;14.260;2022-10-03T09:20:31;3.70;;;3.40;;
1779;SDS011;10019;46.670;14.260;2022-10-03T09:23:31;3.80;;;3.50;;
1779;SDS011;10019;46.670;14.260;2022-10-03T09:26:39;5.43;;;2.90;;
1779;SDS011;10019;46.670;14.260;2022-10-03T09:35:55;3.60;;;2.47;;
1779;SDS011;10019;46.670;14.260;2022-10-03T09:38:38;2.17;;;1.97;;
1779;SDS011;10019;46.670;14.260;2022-10-03T09:48:01;2.23;;;2.00;;
1779;SDS011;10019;46.670;14.260;2022-10-03T09:50:59;3.63;;;2.13;;
1779;SDS011;10019;46.670;14.260;2022-10-03T09:53:56;2.90;;;2.47;;
1779;SDS011;10019;46.670;14.260;2022-10-03T10:00:25;2.63;;;2.43;;
1779;SDS011;10019;46.670;14.260;2022-10-03T10:03:04;4.23;;;2.60;;
1779;SDS011;10019;46.670;14.260;2022-10-03T10:12:16;2.80;;;2.00;;
1779;SDS011;10019;46.670;14.260;2022-10-03T10:18:26;2.20;;;1.97;;
1779;SDS011;10019;46.670;14.260;2022-10-03T10:30:38;3.17;;;1.93;;
1779;SDS011;10019;46.670;14.260;2022-10-03T10:33:32;1.80;;;1.50;;
1779;SDS011;10019;46.670;14.260;2022-10-03T10:39:35;5.73;;;1.50;;
1779;SDS011;10019;46.670;14.260;2022-10-03T10:42:32;1.70;;;1.43;;
1779;SDS011;10019;46.670;14.260;2022-10-03T10:45:45;2.57;;;1.70;;
1779;SDS011;10019;46.670;14.260;2022-10-03T11:04:20;2.23;;;1.63;;
1779;SDS011;10019;46.670;14.260;2022-10-03T11:07:10;1.50;;;1.30;;
1779;SDS011;10019;46.670;14.260;2022-10-03T11:10:09;3.40;;;1.90;;
1779;SDS011;10019;46.670;14.260;2022-10-03T11:22:53;1.40;;;1.00;;
1779;SDS011;10019;46.670;14.260;2022-10-03T11:35:04;3.60;;;1.30;;
1779;SDS011;10019;46.670;14.260;2022-10-03T11:37:58;2.37;;;1.23;;
1779;SDS011;10019;46.670;14.260;2022-10-03T11:40:35;1.57;;;1.23;;
1779;SDS011;10019;46.670;14.260;2022-10-03T11:43:28;1.70;;;1.23;;
1779;SDS011;10019;46.670;14.260;2022-10-03T11:46:26;1.70;;;1.37;;
1779;SDS011;10019;46.670;14.260;2022-10-03T11:49:08;1.60;;;1.10;;
1779;SDS011;10019;46.670;14.260;2022-10-03T11:51:46;2.07;;;1.00;;
1779;SDS011;10019;46.670;14.260;2022-10-03T11:54:25;1.90;;;1.30;;
1779;SDS011;10019;46.670;14.260;2022-10-03T11:57:02;2.07;;;1.10;;
1779;SDS011;10019;46.670;14.260;2022-10-03T12:05:46;1.80;;;1.30;;
1779;SDS011;10019;46.670;14.260;2022-10-03T12:08:23;1.80;;;1.20;;
1779;SDS011;10019;46.670;14.260;2022-10-03T12:11:16;1.67;;;1.37;;
1779;SDS011;10019;46.670;14.260;2022-10-03T12:13:57;1.63;;;1.30;;
1779;SDS011;10019;46.670;14.260;2022-10-03T12:16:37;1.70;;;1.40;;
1779;SDS011;10019;46.670;14.260;2022-10-03T12:19:21;3.30;;;1.40;;
1779;SDS011;10019;46.670;14.260;2022-10-03T12:22:02;1.60;;;1.30;;
1779;SDS011;10019;46.670;14.260;2022-10-03T12:24:39;1.60;;;1.20;;
1779;SDS011;10019;46.670;14.260;2022-10-03T12:27:16;1.80;;;1.30;;
1779;SDS011;10019;46.670;14.260;2022-10-03T12:29:54;1.60;;;1.40;;
1779;SDS011;10019;46.670;14.260;2022-10-03T12:32:30;2.77;;;1.20;;
1779;SDS011;10019;46.670;14.260;2022-10-03T12:35:14;1.70;;;1.30;;
1779;SDS011;10019;46.670;14.260;2022-10-03T12:37:57;1.60;;;1.30;;
1779;SDS011;10019;46.670;14.260;2022-10-03T12:40:37;2.27;;;1.20;;
1779;SDS011;10019;46.670;14.260;2022-10-03T12:43:18;2.70;;;1.20;;
1779;SDS011;10019;46.670;14.260;2022-10-03T12:45:58;2.87;;;1.30;;
1779;SDS011;10019;46.670;14.260;2022-10-03T12:48:35;1.83;;;1.30;;
1779;SDS011;10019;46.670;14.260;2022-10-03T12:51:16;1.80;;;1.27;;
1779;SDS011;10019;46.670;14.260;2022-10-03T12:53:55;1.60;;;1.40;;
1779;SDS011;10019;46.670;14.260;2022-10-03T12:56:37;1.70;;;1.23;;
1779;SDS011;10019;46.670;14.260;2022-10-03T12:59:27;1.60;;;1.33;;
1779;SDS011;10019;46.670;14.260;2022-10-03T13:02:17;1.80;;;1.50;;
1779;SDS011;10019;46.670;14.260;2022-10-03T13:05:00;1.70;;;1.17;;
1779;SDS011;10019;46.670;14.260;2022-10-03T13:07:52;1.60;;;1.30;;
1779;SDS011;10019;46.670;14.260;2022-10-03T13:10:29;3.00;;;1.33;;
1779;SDS011;10019;46.670;14.260;2022-10-03T13:13:19;1.70;;;1.30;;
1779;SDS011;10019;46.670;14.260;2022-10-03T13:18:54;1.57;;;1.27;;
1779;SDS011;10019;46.670;14.260;2022-10-03T13:21:34;2.53;;;1.30;;
1779;SDS011;10019;46.670;14.260;2022-10-03T13:24:25;1.73;;;1.20;;
1779;SDS011;10019;46.670;14.260;2022-10-03T13:27:14;1.90;;;1.40;;
1779;SDS011;10019;46.670;14.260;2022-10-03T13:30:02;1.60;;;1.30;;
1779;SDS011;10019;46.670;14.260;2022-10-03T13:32:38;2.27;;;1.30;;
1779;SDS011;10019;46.670;14.260;2022-10-03T13:35:19;3.00;;;1.40;;
1779;SDS011;10019;46.670;14.260;2022-10-03T13:41:20;2.30;;;1.50;;
1779;SDS011;10019;46.670;14.260;2022-10-03T13:43:57;2.00;;;1.60;;
1779;SDS011;10019;46.670;14.260;2022-10-03T13:46:34;1.73;;;1.10;;
1779;SDS011;10019;46.670;14.260;2022-10-03T13:49:17;1.93;;;1.30;;
1779;SDS011;10019;46.670;14.260;2022-10-03T13:52:03;1.53;;;1.40;;
1779;SDS011;10019;46.670;14.260;2022-10-03T13:54:45;1.50;;;1.30;;
1779;SDS011;10019;46.670;14.260;2022-10-03T13:57:27;1.50;;;1.10;;
1779;SDS011;10019;46.670;14.260;2022-10-03T14:00:04;1.60;;;1.20;;
1779;SDS011;10019;46.670;14.260;2022-10-03T14:02:43;1.50;;;1.20;;
1779;SDS011;10019;46.670;14.260;2022-10-03T14:05:30;4.77;;;2.00;;
1779;SDS011;10019;46.670;14.260;2022-10-03T14:08:37;1.90;;;1.60;;
1779;SDS011;10019;46.670;14.260;2022-10-03T14:11:21;1.50;;;1.20;;
1779;SDS011;10019;46.670;14.260;2022-10-03T14:14:08;4.10;;;1.60;;
1779;SDS011;10019;46.670;14.260;2022-10-03T14:17:05;1.80;;;1.30;;
1779;SDS011;10019;46.670;14.260;2022-10-03T14:19:44;1.70;;;1.40;;
1779;SDS011;10019;46.670;14.260;2022-10-03T14:22:25;1.93;;;1.30;;
1779;SDS011;10019;46.670;14.260;2022-10-03T14:25:09;1.70;;;1.50;;
1779;SDS011;10019;46.670;14.260;2022-10-03T14:27:51;2.13;;;1.40;;
1779;SDS011;10019;46.670;14.260;2022-10-03T14:30:26;4.33;;;1.40;;
1779;SDS011;10019;46.670;14.260;2022-10-03T14:33:06;1.70;;;1.40;;
1779;SDS011;10019;46.670;14.260;2022-10-03T14:35:51;2.00;;;1.50;;
1779;SDS011;10019;46.670;14.260;2022-10-03T14:38:31;3.00;;;1.63;;
1779;SDS011;10019;46.670;14.260;2022-10-03T14:41:27;3.37;;;2.10;;
1779;SDS011;10019;46.670;14.260;2022-10-03T14:44:16;3.10;;;1.20;;
1779;SDS011;10019;46.670;14.260;2022-10-03T14:46:51;1.90;;;1.50;;
1779;SDS011;10019;46.670;14.260;2022-10-03T14:49:26;3.30;;;1.67;;
1779;SDS011;10019;46.670;14.260;2022-10-03T14:52:02;2.87;;;1.40;;
1779;SDS011;10019;46.670;14.260;2022-10-03T14:54:39;2.40;;;1.80;;
1779;SDS011;10019;46.670;14.260;2022-10-03T14:57:13;2.47;;;1.50;;
1779;SDS011;10019;46.670;14.260;2022-10-03T14:59:57;2.83;;;1.40;;
1779;SDS011;10019;46.670;14.260;2022-10-03T15:02:30;2.07;;;1.30;;
1779;SDS011;10019;46.670;14.260;2022-10-03T15:05:06;2.73;;;1.30;;
1779;SDS011;10019;46.670;14.260;2022-10-03T15:07:42;2.60;;;1.40;;
1779;SDS011;10019;46.670;14.260;2022-10-03T15:10:17;3.40;;;1.87;;
1779;SDS011;10019;46.670;14.260;2022-10-03T15:12:52;2.20;;;1.70;;
1779;SDS011;10019;46.670;14.260;2022-10-03T15:15:27;2.37;;;1.70;;
1779;SDS011;10019;46.670;14.260;2022-10-03T15:18:00;2.83;;;2.40;;
1779;SDS011;10019;46.670;14.260;2022-10-03T15:20:35;1.60;;;1.30;;
1779;SDS011;10019;46.670;14.260;2022-10-03T15:23:09;1.80;;;1.40;;
1779;SDS011;10019;46.670;14.260;2022-10-03T15:25:50;1.80;;;1.40;;
1779;SDS011;10019;46.670;14.260;2022-10-03T15:28:25;7.50;;;1.70;;
1779;SDS011;10019;46.670;14.260;2022-10-03T15:31:05;2.73;;;1.40;;
1779;SDS011;10019;46.670;14.260;2022-10-03T15:33:38;2.40;;;1.30;;
1779;SDS011;10019;46.670;14.260;2022-10-03T15:36:13;4.83;;;1.67;;
1779;SDS011;10019;46.670;14.260;2022-10-03T15:38:47;3.83;;;1.83;;
1779;SDS011;10019;46.670;14.260;2022-10-03T15:41:26;2.17;;;1.97;;
1779;SDS011;10019;46.670;14.260;2022-10-03T15:43:59;2.70;;;1.40;;
1779;SDS011;10019;46.670;14.260;2022-10-03T15:46:35;2.83;;;1.67;;
1779;SDS011;10019;46.670;14.260;2022-10-03T15:49:14;3.40;;;1.50;;
1779;SDS011;10019;46.670;14.260;2022-10-03T15:51:49;1.80;;;1.60;;
1779;SDS011;10019;46.670;14.260;2022-10-03T15:54:23;2.00;;;1.60;;
1779;SDS011;10019;46.670;14.260;2022-10-03T15:56:59;2.40;;;2.10;;
1779;SDS011;10019;46.670;14.260;2022-10-03T15:59:31;5.43;;;1.40;;
1779;SDS011;10019;46.670;14.260;2022-10-03T16:02:07;3.07;;;1.87;;
1779;SDS011;10019;46.670;14.260;2022-10-03T16:04:45;1.73;;;1.57;;
1779;SDS011;10019;46.670;14.260;2022-10-03T16:07:19;2.00;;;1.60;;
1779;SDS011;10019;46.670;14.260;2022-10-03T16:10:00;2.63;;;1.57;;
1779;SDS011;10019;46.670;14.260;2022-10-03T16:15:43;2.63;;;1.70;;
1779;SDS011;10019;46.670;14.260;2022-10-03T16:18:39;5.60;;;2.00;;
1779;SDS011;10019;46.670;14.260;2022-10-03T16:21:15;1.90;;;1.63;;
1779;SDS011;10019;46.670;14.260;2022-10-03T16:23:56;2.33;;;1.70;;
1779;SDS011;10019;46.670;14.260;2022-10-03T16:26:29;5.20;;;2.20;;
1779;SDS011;10019;46.670;14.260;2022-10-03T16:29:09;2.43;;;1.63;;
1779;SDS011;10019;46.670;14.260;2022-10-03T16:31:43;6.43;;;2.70;;
1779;SDS011;10019;46.670;14.260;2022-10-03T16:34:19;4.10;;;2.00;;
1779;SDS011;10019;46.670;14.260;2022-10-03T16:36:54;2.10;;;1.90;;
1779;SDS011;10019;46.670;14.260;2022-10-03T16:39:27;6.37;;;2.27;;
1779;SDS011;10019;46.670;14.260;2022-10-03T16:42:07;3.83;;;1.70;;
1779;SDS011;10019;46.670;14.260;2022-10-03T16:44:47;8.93;;;2.00;;
1779;SDS011;10019;46.670;14.260;2022-10-03T16:47:27;2.53;;;1.80;;
1779;SDS011;10019;46.670;14.260;2022-10-03T16:50:02;2.53;;;2.00;;
1779;SDS011;10019;46.670;14.260;2022-10-03T16:52:53;2.10;;;1.70;;
1779;SDS011;10019;46.670;14.260;2022-10-03T16:55:29;2.83;;;1.80;;
1779;SDS011;10019;46.670;14.260;2022-10-03T16:58:03;3.90;;;2.27;;
1779;SDS011;10019;46.670;14.260;2022-10-03T17:00:43;3.40;;;1.80;;
1779;SDS011;10019;46.670;14.260;2022-10-03T17:03:22;2.93;;;1.87;;
1779;SDS011;10019;46.670;14.260;2022-10-03T17:05:57;2.70;;;2.00;;
1779;SDS011;10019;46.670;14.260;2022-10-03T17:08:30;3.23;;;2.10;;
1779;SDS011;10019;46.670;14.260;2022-10-03T17:11:04;3.70;;;2.10;;
1779;SDS011;10019;46.670;14.260;2022-10-03T17:13:38;4.20;;;2.03;;
1779;SDS011;10019;46.670;14.260;2022-10-03T17:16:15;4.30;;;1.90;;
1779;SDS011;10019;46.670;14.260;2022-10-03T17:18:58;5.73;;;2.00;;
1779;SDS011;10019;46.670;14.260;2022-10-03T17:21:38;2.00;;;1.80;;
1779;SDS011;10019;46.670;14.260;2022-10-03T17:24:12;4.60;;;2.27;;
1779;SDS011;10019;46.670;14.260;2022-10-03T17:26:45;3.60;;;2.17;;
1779;SDS011;10019;46.670;14.260;2022-10-03T17:29:22;2.93;;;2.20;;
1779;SDS011;10019;46.670;14.260;2022-10-03T17:32:04;2.70;;;2.10;;
1779;SDS011;10019;46.670;14.260;2022-10-03T17:34:42;2.90;;;2.30;;
1779;SDS011;10019;46.670;14.260;2022-10-03T17:37:18;2.87;;;2.23;;
1779;SDS011;10019;46.670;14.260;2022-10-03T17:40:13;2.77;;;2.27;;
1779;SDS011;10019;46.670;14.260;2022-10-03T17:42:52;5.30;;;2.37;;
1779;SDS011;10019;46.670;14.260;2022-10-03T17:45:30;4.07;;;2.37;;
1779;SDS011;10019;46.670;14.260;2022-10-03T17:48:07;2.90;;;2.20;;
1779;SDS011;10019;46.670;14.260;2022-10-03T17:50:47;4.73;;;2.17;;
1779;SDS011;10019;46.670;14.260;2022-10-03T17:53:23;3.20;;;2.07;;
1779;SDS011;10019;46.670;14.260;2022-10-03T17:55:58;2.47;;;2.23;;
1779;SDS011;10019;46.670;14.260;2022-10-03T17:58:31;3.43;;;2.10;;
1779;SDS011;10019;46.670;14.260;2022-10-03T18:01:05;2.30;;;1.93;;
1779;SDS011;10019;46.670;14.260;2022-10-03T18:03:43;3.23;;;2.20;;
1779;SDS011;10019;46.670;14.260;2022-10-03T18:06:34;4.13;;;2.50;;
1779;SDS011;10019;46.670;14.260;2022-10-03T18:09:09;9.47;;;4.27;;
1779;SDS011;10019;46.670;14.260;2022-10-03T18:12:07;9.50;;;5.10;;
1779;SDS011;10019;46.670;14.260;2022-10-03T18:14:49;6.60;;;2.93;;
1779;SDS011;10019;46.670;14.260;2022-10-03T18:17:56;2.87;;;2.53;;
1779;SDS011;10019;46.670;14.260;2022-10-03T18:20:37;3.77;;;2.53;;
1779;SDS011;10019;46.670;14.260;2022-10-03T18:23:17;3.00;;;2.60;;
1779;SDS011;10019;46.670;14.260;2022-10-03T18:25:53;4.13;;;2.83;;
1779;SDS011;10019;46.670;14.260;2022-10-03T18:28:31;3.87;;;2.83;;
1779;SDS011;10019;46.670;14.260;2022-10-03T18:31:05;4.30;;;3.50;;
1779;SDS011;10019;46.670;14.260;2022-10-03T18:33:40;5.70;;;3.10;;
1779;SDS011;10019;46.670;14.260;2022-10-03T18:36:21;3.70;;;2.83;;
1779;SDS011;10019;46.670;14.260;2022-10-03T18:38:55;4.37;;;2.70;;
1779;SDS011;10019;46.670;14.260;2022-10-03T18:41:28;4.13;;;2.50;;
1779;SDS011;10019;46.670;14.260;2022-10-03T18:44:00;3.13;;;2.50;;
1779;SDS011;10019;46.670;14.260;2022-10-03T18:46:34;5.50;;;3.80;;
1779;SDS011;10019;46.670;14.260;2022-10-03T18:49:12;6.27;;;3.13;;
1779;SDS011;10019;46.670;14.260;2022-10-03T18:51:49;4.90;;;3.13;;
1779;SDS011;10019;46.670;14.260;2022-10-03T18:54:29;5.30;;;3.33;;
1779;SDS011;10019;46.670;14.260;2022-10-03T18:57:06;5.10;;;3.13;;
1779;SDS011;10019;46.670;14.260;2022-10-03T18:59:43;4.83;;;3.70;;
1779;SDS011;10019;46.670;14.260;2022-10-03T19:02:19;9.60;;;3.80;;
1779;SDS011;10019;46.670;14.260;2022-10-03T19:04:55;4.13;;;3.60;;
1779;SDS011;10019;46.670;14.260;2022-10-03T19:07:31;6.30;;;3.33;;
1779;SDS011;10019;46.670;14.260;2022-10-03T19:10:10;5.17;;;3.10;;
1779;SDS011;10019;46.670;14.260;2022-10-03T19:12:54;3.53;;;3.13;;
1779;SDS011;10019;46.670;14.260;2022-10-03T19:15:40;8.50;;;3.03;;
1779;SDS011;10019;46.670;14.260;2022-10-03T19:18:21;6.93;;;3.20;;
1779;SDS011;10019;46.670;14.260;2022-10-03T19:20:56;3.37;;;2.60;;
1779;SDS011;10019;46.670;14.260;2022-10-03T19:23:33;4.43;;;3.00;;
1779;SDS011;10019;46.670;14.260;2022-10-03T19:26:08;3.70;;;2.83;;
1779;SDS011;10019;46.670;14.260;2022-10-03T19:28:43;4.60;;;2.60;;
1779;SDS011;10019;46.670;14.260;2022-10-03T19:31:18;6.57;;;4.17;;
1779;SDS011;10019;46.670;14.260;2022-10-03T19:33:58;4.93;;;4.20;;
1779;SDS011;10019;46.670;14.260;2022-10-03T19:36:33;8.57;;;5.00;;
1779;SDS011;10019;46.670;14.260;2022-10-03T19:39:11;8.03;;;5.07;;
1779;SDS011;10019;46.670;14.260;2022-10-03T19:41:45;8.87;;;5.80;;
1779;SDS011;10019;46.670;14.260;2022-10-03T19:44:22;7.50;;;5.33;;
1779;SDS011;10019;46.670;14.260;2022-10-03T19:47:03;5.43;;;4.93;;
1779;SDS011;10019;46.670;14.260;2022-10-03T19:49:40;8.00;;;4.67;;
1779;SDS011;10019;46.670;14.260;2022-10-03T19:52:18;4.67;;;3.97;;
1779;SDS011;10019;46.670;14.260;2022-10-03T19:55:00;4.70;;;3.70;;
1779;SDS011;10019;46.670;14.260;2022-10-03T19:57:37;4.37;;;2.90;;
1779;SDS011;10019;46.670;14.260;2022-10-03T20:00:24;4.27;;;3.47;;
1779;SDS011;10019;46.670;14.260;2022-10-03T20:03:04;6.13;;;3.83;;
1779;SDS011;10019;46.670;14.260;2022-10-03T20:05:42;4.60;;;3.73;;